| time (UTC) | temp F | wind direction | speed knots | gust knots | rain 1hr in | rain 24hr in | rain mn in | humidity % | barometer mb |
| 20260507064640 | 50 | 290 | 3.5 | 5.2 | 0.01 | 0.02 | 0.02 | 77 | 1009.0 |
| 20260507063140 | 50 | 283 | 7.8 | 12.2 | 0.01 | 0.02 | 0.02 | 78 | 1009.0 |
| 20260507061640 | 52 | 304 | 6.1 | 10.4 | 0.00 | 0.01 | 0.01 | 71 | 1008.6 |
| 20260507060140 | 55 | 310 | 1.7 | 4.3 | 0.00 | 0.01 | 0.01 | 58 | 1008.5 |
| 20260507054640 | 55 | 137 | 4.3 | 7.0 | 0.00 | 0.01 | 0.01 | 57 | 1008.3 |
| 20260507053140 | 55 | 92 | 1.7 | 6.1 | 0.00 | 0.01 | 0.01 | 56 | 1008.0 |
| 20260507051640 | 56 | 103 | 4.3 | 6.1 | 0.01 | 0.01 | 0.01 | 56 | 1008.4 |
| 20260507050140 | 54 | 113 | 6.1 | 10.4 | 0.01 | 0.01 | 0.01 | 59 | 1007.7 |
| 20260507044640 | 55 | 90 | 3.5 | 8.7 | 0.01 | 0.01 | 0.01 | 62 | 1007.8 |
| 20260507043140 | 54 | 199 | 3.5 | 6.1 | 0.01 | 0.01 | 0.01 | 62 | 1007.8 |
| 20260507041640 | 57 | 142 | 1.7 | 7.0 | 0.00 | 0.00 | 0.00 | 57 | 1008.3 |
| 20260507040140 | 58 | 204 | 6.1 | 9.6 | 0.00 | 0.00 | 0.00 | 49 | 1008.0 |
| 20260507034640 | 58 | 232 | 8.7 | 14.8 | 0.00 | 0.00 | 0.00 | 51 | 1007.6 |
| 20260507033140 | 57 | 234 | 9.6 | 18.2 | 0.00 | 0.00 | 0.00 | 53 | 1007.8 |
| 20260507031640 | 59 | 236 | 4.3 | 13.9 | 0.00 | 0.00 | 0.00 | 47 | 1007.8 |
| 20260507030140 | 60 | 213 | 7.8 | 11.3 | 0.00 | 0.00 | 0.00 | 41 | 1008.2 |
| 20260507024640 | 60 | 300 | 7.8 | 17.4 | 0.00 | 0.00 | 0.00 | 54 | 1008.3 |
| 20260507023140 | 62 | 223 | 6.1 | 13.0 | 0.00 | 0.00 | 0.00 | 49 | 1007.5 |
| 20260507021640 | 62 | 222 | 6.1 | 11.3 | 0.00 | 0.00 | 0.00 | 48 | 1007.3 |
| 20260507020140 | 63 | 234 | 7.8 | 14.8 | 0.00 | 0.00 | 0.00 | 47 | 1007.5 |
| 20260507014640 | 63 | 180 | 7.0 | 11.3 | 0.00 | 0.00 | 0.00 | 46 | 1007.2 |
| 20260507013140 | 63 | 191 | 7.8 | 13.0 | 0.00 | 0.00 | 0.00 | 44 | 1007.2 |
| 20260507011640 | 63 | 237 | 6.1 | 11.3 | 0.00 | 0.00 | 0.00 | 43 | 1007.8 |
| 20260507010140 | 64 | 197 | 2.6 | 5.2 | 0.00 | 0.00 | 0.00 | 42 | 1008.0 |
| 20260507004640 | 64 | 209 | 4.3 | 7.8 | 0.00 | 0.00 | 0.00 | 42 | 1007.7 |
| 20260507003140 | 64 | 198 | 4.3 | 8.7 | 0.00 | 0.00 | 0.00 | 41 | 1007.8 |
| 20260507001640 | 65 | 222 | 1.7 | 6.1 | 0.00 | 0.00 | 0.00 | 40 | 1008.2 |
| 20260507000140 | 64 | 160 | 1.7 | 3.5 | 0.00 | 0.00 | 0.00 | 42 | 1008.0 |
| 20260506234640 | 63 | 35 | 0.9 | 1.7 | 0.00 | 0.00 | 0.00 | 43 | 1008.0 |
| 20260506233140 | 63 | 35 | 0.9 | 2.6 | 0.00 | 0.00 | 0.00 | 42 | 1008.1 |
| 20260506231640 | 63 | 47 | 1.7 | 4.3 | 0.00 | 0.00 | 0.00 | 41 | 1008.5 |
| 20260506230140 | 63 | 119 | 1.7 | 3.5 | 0.00 | 0.00 | 0.00 | 40 | 1008.4 |
| 20260506224640 | 62 | 60 | 1.7 | 3.5 | 0.00 | 0.00 | 0.00 | 40 | 1008.5 |
| 20260506223140 | 62 | 329 | 1.7 | 1.7 | 0.00 | 0.00 | 0.00 | 41 | 1008.7 |
| 20260506221640 | 62 | 331 | 2.6 | 4.3 | 0.00 | 0.00 | 0.00 | 40 | 1009.3 |
| 20260506220140 | 62 | 350 | 3.5 | 6.1 | 0.00 | 0.00 | 0.00 | 39 | 1009.1 |
| 20260506214640 | 64 | 23 | 1.7 | 5.2 | 0.00 | 0.00 | 0.00 | 37 | 1009.3 |
| 20260506213140 | 63 | 5 | 1.7 | 3.5 | 0.00 | 0.00 | 0.00 | 37 | 1009.9 |
| 20260506211641 | 63 | 69 | 2.6 | 6.1 | 0.00 | 0.00 | 0.00 | 36 | 1009.9 |
| 20260506210140 | 63 | 34 | 2.6 | 5.2 | 0.00 | 0.00 | 0.00 | 36 | 1009.8 |
| 20260506204641 | 63 | 0 | 2.6 | 4.3 | 0.00 | 0.00 | 0.00 | 36 | 1009.9 |
| 20260506203141 | 61 | 49 | 3.5 | 7.8 | 0.00 | 0.00 | 0.00 | 36 | 1010.2 |
| 20260506201641 | 61 | 84 | 3.5 | 5.2 | 0.00 | 0.00 | 0.00 | 37 | 1010.6 |
| 20260506200141 | 62 | 88 | 3.5 | 7.0 | 0.00 | 0.00 | 0.00 | 37 | 1010.5 |
| 20260506194641 | 60 | 69 | 2.6 | 4.3 | 0.00 | 0.00 | 0.00 | 37 | 1010.7 |
| 20260506193141 | 58 | 80 | 2.6 | 7.0 | 0.00 | 0.00 | 0.00 | 41 | 1011.4 |
| 20260506191641 | 58 | 70 | 3.5 | 8.7 | 0.00 | 0.00 | 0.00 | 36 | 1011.3 |
| 20260506190141 | 58 | 78 | 2.6 | 8.7 | 0.00 | 0.00 | 0.00 | 37 | 1011.4 |
| 20260506184641 | 57 | 61 | 2.6 | 5.2 | 0.00 | 0.00 | 0.00 | 37 | 1012.1 |
| 20260506183141 | 56 | 146 | 2.6 | 6.1 | 0.00 | 0.00 | 0.00 | 39 | 1011.9 |
| 20260506181641 | 55 | 68 | 2.6 | 7.0 | 0.00 | 0.00 | 0.00 | 43 | 1012.0 |
| 20260506180141 | 53 | 11 | 2.6 | 7.0 | 0.00 | 0.00 | 0.00 | 44 | 1012.5 |
| 20260506174641 | 53 | 26 | 2.6 | 7.8 | 0.00 | 0.00 | 0.00 | 44 | 1012.5 |
| 20260506173141 | 52 | 43 | 3.5 | 5.2 | 0.00 | 0.00 | 0.00 | 47 | 1012.8 |
| 20260506171641 | 52 | 45 | 2.6 | 5.2 | 0.00 | 0.00 | 0.00 | 47 | 1013.4 |
| 20260506170141 | 51 | 58 | 2.6 | 4.3 | 0.00 | 0.00 | 0.00 | 47 | 1013.3 |
| 20260506164641 | 51 | 17 | 2.6 | 6.1 | 0.00 | 0.00 | 0.00 | 49 | 1013.3 |
| 20260506163141 | 51 | 32 | 1.7 | 2.6 | 0.00 | 0.00 | 0.00 | 50 | 1013.4 |
| 20260506161641 | 49 | 47 | 3.5 | 11.3 | 0.00 | 0.00 | 0.00 | 50 | 1013.5 |
| 20260506160141 | 47 | 85 | 3.5 | 7.0 | 0.00 | 0.00 | 0.00 | 49 | 1013.7 |
| 20260506154641 | 46 | 85 | 2.6 | 4.3 | 0.00 | 0.00 | 0.00 | 52 | 1013.7 |
| 20260506153141 | 45 | 84 | 2.6 | 6.1 | 0.00 | 0.00 | 0.00 | 53 | 1013.9 |
| 20260506151641 | 47 | 74 | 0.9 | 5.2 | 0.00 | 0.00 | 0.00 | 53 | 1013.9 |
| 20260506150141 | 47 | 133 | 0.9 | 1.7 | 0.00 | 0.00 | 0.00 | 57 | 1013.8 |
| 20260506144641 | 46 | 100 | 1.7 | 4.3 | 0.00 | 0.00 | 0.00 | 50 | 1013.8 |
| 20260506143141 | 45 | 88 | 1.7 | 3.5 | 0.00 | 0.00 | 0.00 | 51 | 1013.9 |
| 20260506141641 | 45 | 79 | 0.9 | 2.6 | 0.00 | 0.00 | 0.00 | 53 | 1014.1 |
| 20260506140141 | 44 | 96 | 1.7 | 3.5 | 0.00 | 0.00 | 0.00 | 51 | 1014.1 |
| 20260506134642 | 43 | 69 | 1.7 | 3.5 | 0.00 | 0.00 | 0.00 | 51 | 1014.1 |
| 20260506133141 | 43 | 105 | 0.9 | 1.7 | 0.00 | 0.00 | 0.00 | 51 | 1014.0 |
| 20260506131641 | 43 | 107 | 0.9 | 1.7 | 0.00 | 0.00 | 0.00 | 48 | 1014.0 |
| 20260506130141 | 42 | 107 | 0.9 | 0.9 | 0.00 | 0.00 | 0.00 | 48 | 1014.1 |
| 20260506124641 | 41 | 107 | 2.6 | 6.1 | 0.00 | 0.00 | 0.00 | 49 | 1014.4 |
| 20260506123141 | 41 | 93 | 2.6 | 5.2 | 0.00 | 0.00 | 0.00 | 50 | 1014.3 |
| 20260506121641 | 41 | 108 | 0.9 | 4.3 | 0.00 | 0.00 | 0.00 | 49 | 1014.4 |
| 20260506120141 | 41 | 107 | 1.7 | 3.5 | 0.00 | 0.00 | 0.00 | 50 | 1014.0 |
| 20260506114641 | 41 | 117 | 1.7 | 2.6 | 0.00 | 0.00 | 0.00 | 49 | 1014.1 |
| 20260506113141 | 42 | 140 | 2.6 | 3.5 | 0.00 | 0.00 | 0.00 | 49 | 1014.2 |
| 20260506111642 | 42 | 140 | 2.6 | 6.1 | 0.00 | 0.00 | 0.00 | 49 | 1014.4 |
| 20260506110142 | 42 | 144 | 4.3 | 6.1 | 0.00 | 0.00 | 0.00 | 48 | 1014.4 |
| 20260506104642 | 42 | 139 | 4.3 | 8.7 | 0.00 | 0.00 | 0.00 | 47 | 1014.6 |
| 20260506103142 | 42 | 139 | 6.1 | 9.6 | 0.00 | 0.00 | 0.00 | 48 | 1014.5 |
| 20260506101642 | 42 | 138 | 7.0 | 7.8 | 0.00 | 0.00 | 0.00 | 47 | 1014.2 |
| 20260506100142 | 42 | 124 | 7.0 | 9.6 | 0.00 | 0.00 | 0.00 | 48 | 1014.2 |
| 20260506094642 | 42 | 139 | 7.0 | 9.6 | 0.00 | 0.00 | 0.00 | 48 | 1014.2 |
| 20260506093142 | 42 | 130 | 6.1 | 8.7 | 0.00 | 0.00 | 0.00 | 47 | 1014.3 |
| 20260506091642 | 42 | 148 | 4.3 | 8.7 | 0.00 | 0.00 | 0.00 | 47 | 1014.3 |
| 20260506090142 | 42 | 185 | 3.5 | 7.8 | 0.00 | 0.00 | 0.00 | 48 | 1014.3 |
| 20260506084642 | 42 | 142 | 9.6 | 13.9 | 0.00 | 0.00 | 0.00 | 48 | 1014.5 |
| 20260506083142 | 43 | 142 | 11.3 | 15.6 | 0.00 | 0.00 | 0.00 | 47 | 1014.5 |
| 20260506081642 | 43 | 140 | 11.3 | 15.6 | 0.00 | 0.00 | 0.00 | 46 | 1014.4 |
| 20260506080142 | 43 | 135 | 12.2 | 15.6 | 0.00 | 0.00 | 0.00 | 46 | 1014.1 |
| 20260506073143 | 43 | 144 | 10.4 | 13.9 | 0.00 | 0.00 | 0.00 | 48 | 1014.4 |
| 20260506071642 | 42 | 140 | 11.3 | 13.9 | 0.00 | 0.00 | 0.00 | 49 | 1014.4 |
| 20260506070142 | 43 | 140 | 9.6 | 11.3 | 0.00 | 0.00 | 0.00 | 49 | 1014.5 |